Pagina principale
METAR-TAF:

METAR-TAF

Aeroporti :

Aeroporto di Magadino

Locarno, Svizzera

latitudine: 46-09-55N, longitudine: 8-52-40E, altezza: 198 m

Osservazione

Il bollettino è stato emesso 34 minuti fa, alle 23:50 UTC
Vento calmo
Temperature 14°C
Umidità 88%
Pressione 1005 hPa
Visibilità 10 km o più
Poco nuvoloso ad un'altezza di 4300 ft

METAR: LSZL 152350Z AUTO 00000KT 9999NDV FEW043 14/12 Q1005 RMK

Ora: 02:24 (00:24 UTC)

Previsione

Il bollettino è stato emesso 6 ore e 59 minuti fa, alle 17:25 UTC
Previsione valida dal 15 alle 18 UTC al 16 alle 03 UTC
Vento 5 kt da ovest/sud-ovest
Visibilità 10 km o più
nessuna nube inferiore a 1500 m e nessun cumulonembo
Temporaneamente
dal 15 alle 18 UTC al 16 alle 03 UTC
Visibilità 10 km o più
Nubi sparse ad un'altezza di 10000 ft

TAF: LSZL 151725Z 1518/1603 25005KT CAVOK TEMPO 1518/1603 9999 SCT100

Osservazioni e previsioni meteorologiche di più di 4000 aeroporti (messaggi METAR e TAF).

Le stazioni disponibili sono rappresentate dai dischi gialli e rossi sulla carta.

Puntare il mouse per vedere il nome della stazione.

Clicca sopra per visualizzare le osservazioni e previsioni meteorologiche.

Per cambiare la mappa : fare clic sui pulsanti verdi con una croce nera per ingrandire, il pulsante verde con un trattino per diminuire, o sulla freccia verde per le mappe adiacenti.


METAR-TAF: